sensor_id;sensor_type;location;lat;lon;timestamp;P1;durP1;ratioP1;P2;durP2;ratioP2
15202;SDS011;7702;51.046;5.184;2024-03-23T00:53:15;10.17;;;4.00;;
15202;SDS011;7702;51.046;5.184;2024-03-23T00:55:41;11.20;;;4.03;;
15202;SDS011;7702;51.046;5.184;2024-03-23T00:58:07;7.73;;;3.77;;
15202;SDS011;7702;51.046;5.184;2024-03-23T01:00:33;12.07;;;4.07;;
15202;SDS011;7702;51.046;5.184;2024-03-23T01:02:59;9.40;;;4.03;;
15202;SDS011;7702;51.046;5.184;2024-03-23T01:05:25;11.53;;;4.13;;
15202;SDS011;7702;51.046;5.184;2024-03-23T01:07:50;11.23;;;3.30;;
15202;SDS011;7702;51.046;5.184;2024-03-23T01:10:16;9.30;;;3.73;;
15202;SDS011;7702;51.046;5.184;2024-03-23T01:12:42;12.33;;;4.40;;
15202;SDS011;7702;51.046;5.184;2024-03-23T01:15:07;11.97;;;3.60;;
15202;SDS011;7702;51.046;5.184;2024-03-23T01:17:33;10.63;;;4.13;;
15202;SDS011;7702;51.046;5.184;2024-03-23T01:19:59;9.70;;;3.70;;
15202;SDS011;7702;51.046;5.184;2024-03-23T01:22:25;11.07;;;3.50;;
15202;SDS011;7702;51.046;5.184;2024-03-23T01:24:51;8.83;;;3.47;;
15202;SDS011;7702;51.046;5.184;2024-03-23T01:27:16;9.53;;;3.37;;
15202;SDS011;7702;51.046;5.184;2024-03-23T01:29:43;9.07;;;3.97;;
15202;SDS011;7702;51.046;5.184;2024-03-23T01:32:08;11.00;;;3.73;;
15202;SDS011;7702;51.046;5.184;2024-03-23T01:34:34;9.53;;;3.67;;
15202;SDS011;7702;51.046;5.184;2024-03-23T01:37:00;13.37;;;3.60;;
15202;SDS011;7702;51.046;5.184;2024-03-23T01:39:25;10.20;;;3.87;;
15202;SDS011;7702;51.046;5.184;2024-03-23T01:41:51;9.70;;;3.50;;
15202;SDS011;7702;51.046;5.184;2024-03-23T01:44:17;11.97;;;3.83;;
15202;SDS011;7702;51.046;5.184;2024-03-23T01:46:43;7.20;;;3.70;;
15202;SDS011;7702;51.046;5.184;2024-03-23T01:49:09;10.30;;;3.73;;
15202;SDS011;7702;51.046;5.184;2024-03-23T01:51:35;6.20;;;3.53;;
15202;SDS011;7702;51.046;5.184;2024-03-23T01:54:02;9.20;;;4.17;;
15202;SDS011;7702;51.046;5.184;2024-03-23T01:56:31;8.50;;;3.57;;
15202;SDS011;7702;51.046;5.184;2024-03-23T01:59:01;12.20;;;3.83;;
15202;SDS011;7702;51.046;5.184;2024-03-23T02:01:28;10.13;;;3.70;;
15202;SDS011;7702;51.046;5.184;2024-03-23T02:03:54;10.70;;;3.80;;
15202;SDS011;7702;51.046;5.184;2024-03-23T02:06:19;11.63;;;3.70;;
15202;SDS011;7702;51.046;5.184;2024-03-23T02:08:45;7.67;;;3.30;;
15202;SDS011;7702;51.046;5.184;2024-03-23T02:11:11;9.93;;;4.67;;
15202;SDS011;7702;51.046;5.184;2024-03-23T02:13:37;11.80;;;4.37;;
15202;SDS011;7702;51.046;5.184;2024-03-23T02:16:03;13.50;;;5.03;;
15202;SDS011;7702;51.046;5.184;2024-03-23T02:18:30;14.53;;;4.53;;
15202;SDS011;7702;51.046;5.184;2024-03-23T02:20:56;12.47;;;4.33;;
15202;SDS011;7702;51.046;5.184;2024-03-23T02:23:22;12.10;;;4.90;;
15202;SDS011;7702;51.046;5.184;2024-03-23T02:25:49;15.13;;;5.37;;
15202;SDS011;7702;51.046;5.184;2024-03-23T02:28:15;12.73;;;4.33;;
15202;SDS011;7702;51.046;5.184;2024-03-23T02:30:41;14.43;;;4.30;;
15202;SDS011;7702;51.046;5.184;2024-03-23T02:33:07;8.30;;;3.83;;
15202;SDS011;7702;51.046;5.184;2024-03-23T02:35:33;10.27;;;4.03;;
15202;SDS011;7702;51.046;5.184;2024-03-23T02:37:59;9.00;;;3.67;;
15202;SDS011;7702;51.046;5.184;2024-03-23T02:40:25;11.80;;;3.83;;
15202;SDS011;7702;51.046;5.184;2024-03-23T02:42:51;10.43;;;3.93;;
15202;SDS011;7702;51.046;5.184;2024-03-23T02:45:17;7.53;;;3.57;;
15202;SDS011;7702;51.046;5.184;2024-03-23T02:47:42;9.03;;;3.43;;
15202;SDS011;7702;51.046;5.184;2024-03-23T02:50:08;9.60;;;3.83;;
15202;SDS011;7702;51.046;5.184;2024-03-23T02:52:34;13.97;;;4.60;;
15202;SDS011;7702;51.046;5.184;2024-03-23T02:55:01;13.27;;;4.03;;
15202;SDS011;7702;51.046;5.184;2024-03-23T02:57:27;11.67;;;4.33;;
15202;SDS011;7702;51.046;5.184;2024-03-23T02:59:53;10.97;;;3.57;;
15202;SDS011;7702;51.046;5.184;2024-03-23T03:02:19;8.40;;;3.37;;
15202;SDS011;7702;51.046;5.184;2024-03-23T03:04:46;11.03;;;3.30;;
15202;SDS011;7702;51.046;5.184;2024-03-23T03:07:12;10.63;;;3.03;;
15202;SDS011;7702;51.046;5.184;2024-03-23T03:09:37;8.13;;;3.13;;
15202;SDS011;7702;51.046;5.184;2024-03-23T03:12:04;14.07;;;3.30;;
15202;SDS011;7702;51.046;5.184;2024-03-23T03:14:33;9.70;;;3.80;;
15202;SDS011;7702;51.046;5.184;2024-03-23T03:16:59;13.23;;;3.40;;
15202;SDS011;7702;51.046;5.184;2024-03-23T03:19:25;10.63;;;3.73;;
15202;SDS011;7702;51.046;5.184;2024-03-23T03:21:52;7.40;;;3.63;;
15202;SDS011;7702;51.046;5.184;2024-03-23T03:24:18;10.60;;;2.47;;
15202;SDS011;7702;51.046;5.184;2024-03-23T03:26:44;11.47;;;3.43;;
15202;SDS011;7702;51.046;5.184;2024-03-23T03:29:10;6.17;;;2.87;;
15202;SDS011;7702;51.046;5.184;2024-03-23T03:31:36;9.63;;;3.57;;
15202;SDS011;7702;51.046;5.184;2024-03-23T03:34:02;10.17;;;2.90;;
15202;SDS011;7702;51.046;5.184;2024-03-23T03:36:28;10.60;;;3.43;;
15202;SDS011;7702;51.046;5.184;2024-03-23T03:38:54;9.83;;;3.10;;
15202;SDS011;7702;51.046;5.184;2024-03-23T03:41:19;9.53;;;3.67;;
15202;SDS011;7702;51.046;5.184;2024-03-23T03:43:45;10.97;;;3.83;;
15202;SDS011;7702;51.046;5.184;2024-03-23T03:46:11;13.97;;;4.10;;
15202;SDS011;7702;51.046;5.184;2024-03-23T03:48:37;11.60;;;3.73;;
15202;SDS011;7702;51.046;5.184;2024-03-23T03:51:03;10.53;;;3.53;;
15202;SDS011;7702;51.046;5.184;2024-03-23T03:53:29;14.00;;;4.47;;
15202;SDS011;7702;51.046;5.184;2024-03-23T03:55:55;6.27;;;3.20;;
15202;SDS011;7702;51.046;5.184;2024-03-23T03:58:21;8.60;;;3.23;;
15202;SDS011;7702;51.046;5.184;2024-03-23T04:00:46;11.40;;;3.80;;
15202;SDS011;7702;51.046;5.184;2024-03-23T04:03:12;11.13;;;4.40;;
15202;SDS011;7702;51.046;5.184;2024-03-23T04:05:38;8.20;;;3.40;;
15202;SDS011;7702;51.046;5.184;2024-03-23T04:08:04;8.50;;;3.27;;
15202;SDS011;7702;51.046;5.184;2024-03-23T04:10:30;8.13;;;3.20;;
15202;SDS011;7702;51.046;5.184;2024-03-23T04:12:56;7.00;;;3.23;;
15202;SDS011;7702;51.046;5.184;2024-03-23T04:15:22;8.43;;;3.57;;
15202;SDS011;7702;51.046;5.184;2024-03-23T04:17:47;6.10;;;3.20;;
15202;SDS011;7702;51.046;5.184;2024-03-23T04:20:13;8.90;;;3.37;;
15202;SDS011;7702;51.046;5.184;2024-03-23T04:22:41;9.20;;;3.67;;
15202;SDS011;7702;51.046;5.184;2024-03-23T04:25:10;10.40;;;4.40;;
15202;SDS011;7702;51.046;5.184;2024-03-23T04:27:36;10.73;;;4.17;;
15202;SDS011;7702;51.046;5.184;2024-03-23T04:30:02;9.47;;;3.93;;
15202;SDS011;7702;51.046;5.184;2024-03-23T04:32:29;12.17;;;4.63;;
15202;SDS011;7702;51.046;5.184;2024-03-23T04:34:55;17.30;;;4.73;;
15202;SDS011;7702;51.046;5.184;2024-03-23T04:37:21;14.53;;;5.23;;
15202;SDS011;7702;51.046;5.184;2024-03-23T04:39:48;10.20;;;4.77;;
15202;SDS011;7702;51.046;5.184;2024-03-23T04:42:14;11.70;;;5.10;;
15202;SDS011;7702;51.046;5.184;2024-03-23T04:44:40;12.53;;;5.10;;
15202;SDS011;7702;51.046;5.184;2024-03-23T04:47:06;13.07;;;4.90;;
15202;SDS011;7702;51.046;5.184;2024-03-23T04:49:32;12.93;;;5.10;;
15202;SDS011;7702;51.046;5.184;2024-03-23T04:51:57;13.27;;;5.03;;
15202;SDS011;7702;51.046;5.184;2024-03-23T04:54:23;17.47;;;5.00;;
15202;SDS011;7702;51.046;5.184;2024-03-23T04:56:49;14.27;;;5.83;;
15202;SDS011;7702;51.046;5.184;2024-03-23T04:59:14;13.33;;;5.73;;
15202;SDS011;7702;51.046;5.184;2024-03-23T05:01:40;13.77;;;5.27;;
15202;SDS011;7702;51.046;5.184;2024-03-23T05:04:07;13.03;;;6.13;;
15202;SDS011;7702;51.046;5.184;2024-03-23T05:06:33;13.50;;;6.17;;
15202;SDS011;7702;51.046;5.184;2024-03-23T05:08:59;15.87;;;6.60;;
15202;SDS011;7702;51.046;5.184;2024-03-23T05:11:28;18.40;;;6.30;;
15202;SDS011;7702;51.046;5.184;2024-03-23T05:13:53;17.90;;;7.27;;
15202;SDS011;7702;51.046;5.184;2024-03-23T05:16:19;14.23;;;6.60;;
15202;SDS011;7702;51.046;5.184;2024-03-23T05:18:44;18.20;;;8.23;;
15202;SDS011;7702;51.046;5.184;2024-03-23T05:21:10;12.43;;;6.87;;
15202;SDS011;7702;51.046;5.184;2024-03-23T05:23:36;19.80;;;8.23;;
15202;SDS011;7702;51.046;5.184;2024-03-23T05:26:03;14.10;;;8.30;;
15202;SDS011;7702;51.046;5.184;2024-03-23T05:28:29;17.50;;;8.03;;
15202;SDS011;7702;51.046;5.184;2024-03-23T05:30:55;18.80;;;7.60;;
15202;SDS011;7702;51.046;5.184;2024-03-23T05:33:24;17.90;;;8.10;;
15202;SDS011;7702;51.046;5.184;2024-03-23T05:35:56;20.40;;;8.40;;
15202;SDS011;7702;51.046;5.184;2024-03-23T05:38:25;18.77;;;8.40;;
15202;SDS011;7702;51.046;5.184;2024-03-23T05:40:55;22.80;;;7.60;;
15202;SDS011;7702;51.046;5.184;2024-03-23T05:43:22;21.03;;;8.87;;
15202;SDS011;7702;51.046;5.184;2024-03-23T05:45:55;20.67;;;8.63;;
15202;SDS011;7702;51.046;5.184;2024-03-23T05:48:21;17.03;;;7.83;;
15202;SDS011;7702;51.046;5.184;2024-03-23T05:50:47;19.47;;;8.30;;
15202;SDS011;7702;51.046;5.184;2024-03-23T05:53:17;18.13;;;8.37;;
15202;SDS011;7702;51.046;5.184;2024-03-23T05:55:43;18.80;;;7.27;;
15202;SDS011;7702;51.046;5.184;2024-03-23T05:58:09;12.90;;;7.17;;
15202;SDS011;7702;51.046;5.184;2024-03-23T06:00:35;14.87;;;7.23;;
15202;SDS011;7702;51.046;5.184;2024-03-23T06:03:01;17.90;;;8.40;;
15202;SDS011;7702;51.046;5.184;2024-03-23T06:05:27;12.80;;;7.67;;
15202;SDS011;7702;51.046;5.184;2024-03-23T06:07:52;19.70;;;7.37;;
15202;SDS011;7702;51.046;5.184;2024-03-23T06:10:18;21.07;;;7.97;;
15202;SDS011;7702;51.046;5.184;2024-03-23T06:12:45;18.00;;;7.03;;
15202;SDS011;7702;51.046;5.184;2024-03-23T06:15:11;21.13;;;8.33;;
15202;SDS011;7702;51.046;5.184;2024-03-23T06:17:37;18.50;;;7.73;;
15202;SDS011;7702;51.046;5.184;2024-03-23T06:20:03;15.67;;;6.90;;
15202;SDS011;7702;51.046;5.184;2024-03-23T06:22:31;17.03;;;7.57;;
15202;SDS011;7702;51.046;5.184;2024-03-23T06:24:57;17.83;;;6.90;;
15202;SDS011;7702;51.046;5.184;2024-03-23T06:27:23;19.93;;;7.60;;
15202;SDS011;7702;51.046;5.184;2024-03-23T06:29:48;14.57;;;8.10;;
15202;SDS011;7702;51.046;5.184;2024-03-23T06:32:14;17.83;;;8.03;;
15202;SDS011;7702;51.046;5.184;2024-03-23T06:34:42;16.90;;;8.27;;
15202;SDS011;7702;51.046;5.184;2024-03-23T06:37:08;19.47;;;7.70;;
15202;SDS011;7702;51.046;5.184;2024-03-23T06:39:37;19.33;;;7.27;;
15202;SDS011;7702;51.046;5.184;2024-03-23T06:42:03;17.70;;;7.20;;
15202;SDS011;7702;51.046;5.184;2024-03-23T06:44:29;16.07;;;7.13;;
15202;SDS011;7702;51.046;5.184;2024-03-23T06:46:56;11.83;;;6.10;;
15202;SDS011;7702;51.046;5.184;2024-03-23T06:49:25;12.83;;;5.87;;
15202;SDS011;7702;51.046;5.184;2024-03-23T06:51:50;15.73;;;6.70;;
15202;SDS011;7702;51.046;5.184;2024-03-23T06:54:16;15.80;;;6.20;;
15202;SDS011;7702;51.046;5.184;2024-03-23T06:56:44;14.13;;;6.17;;
15202;SDS011;7702;51.046;5.184;2024-03-23T06:59:09;13.67;;;5.53;;
15202;SDS011;7702;51.046;5.184;2024-03-23T07:01:35;11.50;;;5.13;;
15202;SDS011;7702;51.046;5.184;2024-03-23T07:04:01;17.03;;;6.00;;
15202;SDS011;7702;51.046;5.184;2024-03-23T07:06:28;16.97;;;5.23;;
15202;SDS011;7702;51.046;5.184;2024-03-23T07:08:55;12.97;;;5.70;;
15202;SDS011;7702;51.046;5.184;2024-03-23T07:11:21;15.63;;;4.10;;
15202;SDS011;7702;51.046;5.184;2024-03-23T07:13:49;10.77;;;4.33;;
15202;SDS011;7702;51.046;5.184;2024-03-23T07:16:16;14.93;;;4.20;;
15202;SDS011;7702;51.046;5.184;2024-03-23T07:18:41;12.53;;;3.83;;
15202;SDS011;7702;51.046;5.184;2024-03-23T07:21:07;11.97;;;4.10;;
15202;SDS011;7702;51.046;5.184;2024-03-23T07:23:33;8.30;;;4.13;;
15202;SDS011;7702;51.046;5.184;2024-03-23T07:26:03;14.87;;;4.47;;
15202;SDS011;7702;51.046;5.184;2024-03-23T07:28:30;14.80;;;4.20;;
15202;SDS011;7702;51.046;5.184;2024-03-23T07:31:03;6.97;;;3.53;;
15202;SDS011;7702;51.046;5.184;2024-03-23T07:33:29;10.13;;;3.53;;
15202;SDS011;7702;51.046;5.184;2024-03-23T07:35:55;8.87;;;3.70;;
15202;SDS011;7702;51.046;5.184;2024-03-23T07:38:21;10.73;;;3.47;;
15202;SDS011;7702;51.046;5.184;2024-03-23T07:40:47;12.20;;;3.67;;
15202;SDS011;7702;51.046;5.184;2024-03-23T07:43:19;9.53;;;3.60;;
15202;SDS011;7702;51.046;5.184;2024-03-23T07:45:50;8.37;;;3.30;;
15202;SDS011;7702;51.046;5.184;2024-03-23T07:48:18;11.33;;;3.77;;
15202;SDS011;7702;51.046;5.184;2024-03-23T07:50:43;15.77;;;4.50;;
15202;SDS011;7702;51.046;5.184;2024-03-23T07:53:09;8.13;;;3.00;;
15202;SDS011;7702;51.046;5.184;2024-03-23T07:55:35;10.47;;;3.80;;
15202;SDS011;7702;51.046;5.184;2024-03-23T07:58:00;8.77;;;2.83;;
15202;SDS011;7702;51.046;5.184;2024-03-23T08:00:26;9.00;;;2.80;;
15202;SDS011;7702;51.046;5.184;2024-03-23T08:02:51;9.70;;;3.23;;
15202;SDS011;7702;51.046;5.184;2024-03-23T08:05:17;10.60;;;3.67;;
15202;SDS011;7702;51.046;5.184;2024-03-23T08:07:43;11.00;;;3.20;;
15202;SDS011;7702;51.046;5.184;2024-03-23T08:10:08;11.73;;;2.83;;
15202;SDS011;7702;51.046;5.184;2024-03-23T08:12:35;18.13;;;4.63;;
15202;SDS011;7702;51.046;5.184;2024-03-23T08:15:01;11.07;;;3.03;;
15202;SDS011;7702;51.046;5.184;2024-03-23T08:17:26;9.27;;;3.10;;
15202;SDS011;7702;51.046;5.184;2024-03-23T08:19:53;8.20;;;2.60;;
15202;SDS011;7702;51.046;5.184;2024-03-23T08:22:19;8.50;;;2.73;;
15202;SDS011;7702;51.046;5.184;2024-03-23T08:24:44;8.07;;;2.67;;
15202;SDS011;7702;51.046;5.184;2024-03-23T08:27:10;5.93;;;2.23;;
15202;SDS011;7702;51.046;5.184;2024-03-23T08:29:35;12.27;;;2.63;;
15202;SDS011;7702;51.046;5.184;2024-03-23T08:32:01;7.57;;;2.57;;
15202;SDS011;7702;51.046;5.184;2024-03-23T08:34:27;8.10;;;2.00;;
15202;SDS011;7702;51.046;5.184;2024-03-23T08:36:52;7.37;;;2.90;;
15202;SDS011;7702;51.046;5.184;2024-03-23T08:39:18;10.83;;;2.67;;
15202;SDS011;7702;51.046;5.184;2024-03-23T08:41:44;7.63;;;2.70;;
15202;SDS011;7702;51.046;5.184;2024-03-23T08:44:11;7.57;;;2.43;;
15202;SDS011;7702;51.046;5.184;2024-03-23T08:46:37;7.07;;;2.20;;
15202;SDS011;7702;51.046;5.184;2024-03-23T08:49:02;6.23;;;2.50;;
15202;SDS011;7702;51.046;5.184;2024-03-23T08:51:28;6.37;;;1.97;;
15202;SDS011;7702;51.046;5.184;2024-03-23T08:53:54;6.03;;;2.00;;
15202;SDS011;7702;51.046;5.184;2024-03-23T08:56:19;4.37;;;2.27;;
15202;SDS011;7702;51.046;5.184;2024-03-23T08:58:45;7.00;;;2.00;;
15202;SDS011;7702;51.046;5.184;2024-03-23T09:01:11;7.70;;;2.13;;
15202;SDS011;7702;51.046;5.184;2024-03-23T09:03:40;5.23;;;2.20;;
15202;SDS011;7702;51.046;5.184;2024-03-23T09:06:10;9.43;;;2.57;;
15202;SDS011;7702;51.046;5.184;2024-03-23T09:08:37;8.93;;;2.13;;
15202;SDS011;7702;51.046;5.184;2024-03-23T09:11:04;8.10;;;1.70;;
15202;SDS011;7702;51.046;5.184;2024-03-23T09:13:35;5.40;;;1.93;;
15202;SDS011;7702;51.046;5.184;2024-03-23T09:16:02;5.60;;;1.97;;
15202;SDS011;7702;51.046;5.184;2024-03-23T09:18:31;10.53;;;2.00;;
15202;SDS011;7702;51.046;5.184;2024-03-23T09:20:58;6.43;;;1.50;;
15202;SDS011;7702;51.046;5.184;2024-03-23T09:23:23;7.20;;;1.53;;
15202;SDS011;7702;51.046;5.184;2024-03-23T09:25:49;6.07;;;2.00;;
15202;SDS011;7702;51.046;5.184;2024-03-23T09:28:15;7.77;;;2.03;;
15202;SDS011;7702;51.046;5.184;2024-03-23T09:30:40;8.60;;;1.87;;
15202;SDS011;7702;51.046;5.184;2024-03-23T09:33:12;10.00;;;2.00;;
15202;SDS011;7702;51.046;5.184;2024-03-23T09:35:40;6.57;;;2.20;;
15202;SDS011;7702;51.046;5.184;2024-03-23T09:38:07;8.80;;;2.03;;
15202;SDS011;7702;51.046;5.184;2024-03-23T09:40:34;3.83;;;1.43;;
15202;SDS011;7702;51.046;5.184;2024-03-23T09:43:09;8.40;;;2.03;;
15202;SDS011;7702;51.046;5.184;2024-03-23T09:45:41;8.23;;;1.97;;
15202;SDS011;7702;51.046;5.184;2024-03-23T09:48:08;7.43;;;2.30;;
15202;SDS011;7702;51.046;5.184;2024-03-23T09:50:44;6.50;;;1.97;;
15202;SDS011;7702;51.046;5.184;2024-03-23T09:53:11;5.00;;;1.10;;
15202;SDS011;7702;51.046;5.184;2024-03-23T09:55:38;4.13;;;1.30;;
15202;SDS011;7702;51.046;5.184;2024-03-23T09:58:05;6.23;;;1.43;;
15202;SDS011;7702;51.046;5.184;2024-03-23T10:00:34;3.90;;;1.73;;
15202;SDS011;7702;51.046;5.184;2024-03-23T10:03:00;5.30;;;1.83;;
15202;SDS011;7702;51.046;5.184;2024-03-23T10:05:27;8.00;;;1.70;;
15202;SDS011;7702;51.046;5.184;2024-03-23T10:07:54;5.93;;;1.67;;
15202;SDS011;7702;51.046;5.184;2024-03-23T10:10:20;4.50;;;1.33;;
15202;SDS011;7702;51.046;5.184;2024-03-23T10:12:49;6.10;;;1.80;;
15202;SDS011;7702;51.046;5.184;2024-03-23T10:15:22;2.13;;;1.50;;
15202;SDS011;7702;51.046;5.184;2024-03-23T10:17:51;8.83;;;1.80;;
15202;SDS011;7702;51.046;5.184;2024-03-23T10:20:20;7.57;;;1.87;;
15202;SDS011;7702;51.046;5.184;2024-03-23T10:22:47;4.40;;;1.67;;
15202;SDS011;7702;51.046;5.184;2024-03-23T10:25:16;11.43;;;7.67;;
15202;SDS011;7702;51.046;5.184;2024-03-23T10:27:42;9.63;;;2.17;;
15202;SDS011;7702;51.046;5.184;2024-03-23T10:30:12;3.97;;;0.70;;
15202;SDS011;7702;51.046;5.184;2024-03-23T10:32:41;3.83;;;1.17;;
15202;SDS011;7702;51.046;5.184;2024-03-23T10:35:14;1.60;;;0.60;;
15202;SDS011;7702;51.046;5.184;2024-03-23T10:37:44;0.83;;;0.60;;
15202;SDS011;7702;51.046;5.184;2024-03-23T10:40:16;1.33;;;0.60;;
15202;SDS011;7702;51.046;5.184;2024-03-23T10:42:41;0.80;;;0.50;;
15202;SDS011;7702;51.046;5.184;2024-03-23T10:45:07;3.47;;;0.70;;
15202;SDS011;7702;51.046;5.184;2024-03-23T10:47:36;1.93;;;0.90;;
15202;SDS011;7702;51.046;5.184;2024-03-23T10:50:06;4.60;;;0.97;;
15202;SDS011;7702;51.046;5.184;2024-03-23T10:52:32;1.97;;;1.43;;
15202;SDS011;7702;51.046;5.184;2024-03-23T10:54:58;3.17;;;1.87;;
15202;SDS011;7702;51.046;5.184;2024-03-23T10:57:36;1.33;;;0.70;;
15202;SDS011;7702;51.046;5.184;2024-03-23T11:00:06;1.80;;;0.63;;
15202;SDS011;7702;51.046;5.184;2024-03-23T11:02:33;1.90;;;0.60;;
15202;SDS011;7702;51.046;5.184;2024-03-23T11:04:59;1.93;;;0.60;;
15202;SDS011;7702;51.046;5.184;2024-03-23T11:07:31;3.73;;;0.87;;
15202;SDS011;7702;51.046;5.184;2024-03-23T11:09:59;1.63;;;0.83;;
15202;SDS011;7702;51.046;5.184;2024-03-23T11:12:31;2.00;;;1.10;;
15202;SDS011;7702;51.046;5.184;2024-03-23T11:15:04;4.13;;;1.20;;
15202;SDS011;7702;51.046;5.184;2024-03-23T11:17:36;3.50;;;1.40;;
15202;SDS011;7702;51.046;5.184;2024-03-23T11:20:02;3.70;;;1.27;;
15202;SDS011;7702;51.046;5.184;2024-03-23T11:22:43;5.43;;;1.70;;
15202;SDS011;7702;51.046;5.184;2024-03-23T11:25:24;3.10;;;1.67;;
15202;SDS011;7702;51.046;5.184;2024-03-23T11:27:51;4.80;;;1.50;;
15202;SDS011;7702;51.046;5.184;2024-03-23T11:30:20;3.37;;;1.50;;
15202;SDS011;7702;51.046;5.184;2024-03-23T11:32:48;5.67;;;1.93;;
15202;SDS011;7702;51.046;5.184;2024-03-23T11:38:07;3.93;;;1.13;;
15202;SDS011;7702;51.046;5.184;2024-03-23T11:40:38;3.83;;;1.33;;
15202;SDS011;7702;51.046;5.184;2024-03-23T11:43:08;2.43;;;1.27;;
15202;SDS011;7702;51.046;5.184;2024-03-23T11:45:49;3.37;;;1.30;;
15202;SDS011;7702;51.046;5.184;2024-03-23T11:48:20;5.63;;;1.80;;
15202;SDS011;7702;51.046;5.184;2024-03-23T11:50:47;4.80;;;1.43;;
15202;SDS011;7702;51.046;5.184;2024-03-23T11:53:19;3.50;;;1.70;;
15202;SDS011;7702;51.046;5.184;2024-03-23T11:55:53;4.33;;;1.70;;
15202;SDS011;7702;51.046;5.184;2024-03-23T11:58:20;5.80;;;1.60;;
15202;SDS011;7702;51.046;5.184;2024-03-23T12:03:27;3.43;;;1.10;;
15202;SDS011;7702;51.046;5.184;2024-03-23T12:05:54;3.87;;;1.60;;
15202;SDS011;7702;51.046;5.184;2024-03-23T12:08:22;1.90;;;1.27;;
15202;SDS011;7702;51.046;5.184;2024-03-23T12:10:51;1.83;;;1.30;;
15202;SDS011;7702;51.046;5.184;2024-03-23T12:13:21;1.93;;;1.40;;
15202;SDS011;7702;51.046;5.184;2024-03-23T12:15:50;2.53;;;1.50;;
15202;SDS011;7702;51.046;5.184;2024-03-23T12:18:16;4.93;;;1.40;;
15202;SDS011;7702;51.046;5.184;2024-03-23T12:20:43;3.00;;;1.70;;
15202;SDS011;7702;51.046;5.184;2024-03-23T12:23:09;2.73;;;1.80;;
15202;SDS011;7702;51.046;5.184;2024-03-23T12:25:36;1.87;;;1.70;;
15202;SDS011;7702;51.046;5.184;2024-03-23T12:28:03;4.67;;;1.70;;
15202;SDS011;7702;51.046;5.184;2024-03-23T12:30:31;5.47;;;2.13;;
15202;SDS011;7702;51.046;5.184;2024-03-23T12:33:01;4.10;;;1.70;;
15202;SDS011;7702;51.046;5.184;2024-03-23T12:35:28;1.60;;;1.20;;
15202;SDS011;7702;51.046;5.184;2024-03-23T12:37:53;4.20;;;1.80;;
15202;SDS011;7702;51.046;5.184;2024-03-23T12:40:19;2.07;;;1.40;;
15202;SDS011;7702;51.046;5.184;2024-03-23T12:42:45;2.43;;;1.43;;
15202;SDS011;7702;51.046;5.184;2024-03-23T12:45:10;2.27;;;1.30;;
15202;SDS011;7702;51.046;5.184;2024-03-23T12:47:36;1.83;;;1.10;;
15202;SDS011;7702;51.046;5.184;2024-03-23T12:50:02;1.23;;;0.57;;
15202;SDS011;7702;51.046;5.184;2024-03-23T12:52:28;0.37;;;0.37;;
15202;SDS011;7702;51.046;5.184;2024-03-23T12:54:57;1.10;;;0.60;;
15202;SDS011;7702;51.046;5.184;2024-03-23T12:57:23;1.67;;;0.60;;
15202;SDS011;7702;51.046;5.184;2024-03-23T12:59:50;3.03;;;0.60;;
15202;SDS011;7702;51.046;5.184;2024-03-23T13:02:17;1.23;;;0.70;;
15202;SDS011;7702;51.046;5.184;2024-03-23T13:04:44;2.07;;;1.27;;
15202;SDS011;7702;51.046;5.184;2024-03-23T13:07:10;3.60;;;1.07;;
15202;SDS011;7702;51.046;5.184;2024-03-23T13:09:36;1.87;;;1.00;;
15202;SDS011;7702;51.046;5.184;2024-03-23T13:12:01;2.20;;;1.00;;
15202;SDS011;7702;51.046;5.184;2024-03-23T13:14:27;1.90;;;1.00;;
15202;SDS011;7702;51.046;5.184;2024-03-23T13:16:53;1.43;;;0.90;;
15202;SDS011;7702;51.046;5.184;2024-03-23T13:19:18;1.93;;;1.80;;
15202;SDS011;7702;51.046;5.184;2024-03-23T13:21:45;3.03;;;1.20;;
15202;SDS011;7702;51.046;5.184;2024-03-23T13:24:10;1.90;;;0.87;;
15202;SDS011;7702;51.046;5.184;2024-03-23T13:26:36;1.70;;;0.70;;
15202;SDS011;7702;51.046;5.184;2024-03-23T13:29:02;3.53;;;0.90;;
15202;SDS011;7702;51.046;5.184;2024-03-23T13:31:28;3.60;;;1.27;;
15202;SDS011;7702;51.046;5.184;2024-03-23T13:33:53;1.27;;;0.70;;
15202;SDS011;7702;51.046;5.184;2024-03-23T13:36:19;2.30;;;0.93;;
15202;SDS011;7702;51.046;5.184;2024-03-23T13:38:45;4.10;;;0.90;;
15202;SDS011;7702;51.046;5.184;2024-03-23T13:41:10;1.80;;;0.90;;
15202;SDS011;7702;51.046;5.184;2024-03-23T13:43:37;3.57;;;1.20;;
15202;SDS011;7702;51.046;5.184;2024-03-23T13:46:03;3.00;;;1.20;;
15202;SDS011;7702;51.046;5.184;2024-03-23T13:48:28;3.23;;;1.43;;
15202;SDS011;7702;51.046;5.184;2024-03-23T13:51:00;2.33;;;1.67;;
15202;SDS011;7702;51.046;5.184;2024-03-23T13:53:27;4.37;;;1.60;;
15202;SDS011;7702;51.046;5.184;2024-03-23T13:55:53;2.97;;;1.37;;
15202;SDS011;7702;51.046;5.184;2024-03-23T13:58:19;2.23;;;1.43;;
15202;SDS011;7702;51.046;5.184;2024-03-23T14:00:45;3.37;;;1.67;;
15202;SDS011;7702;51.046;5.184;2024-03-23T14:03:12;2.70;;;1.93;;
15202;SDS011;7702;51.046;5.184;2024-03-23T14:05:38;2.57;;;2.23;;
15202;SDS011;7702;51.046;5.184;2024-03-23T14:08:08;5.27;;;2.30;;
15202;SDS011;7702;51.046;5.184;2024-03-23T14:10:35;4.07;;;2.77;;
15202;SDS011;7702;51.046;5.184;2024-03-23T14:13:01;5.67;;;3.07;;
15202;SDS011;7702;51.046;5.184;2024-03-23T14:15:28;6.90;;;3.67;;
15202;SDS011;7702;51.046;5.184;2024-03-23T14:17:55;6.70;;;3.87;;
15202;SDS011;7702;51.046;5.184;2024-03-23T14:20:21;5.00;;;2.37;;
15202;SDS011;7702;51.046;5.184;2024-03-23T14:22:47;3.93;;;1.80;;
15202;SDS011;7702;51.046;5.184;2024-03-23T14:25:13;2.30;;;1.77;;
15202;SDS011;7702;51.046;5.184;2024-03-23T14:27:39;2.57;;;1.27;;
15202;SDS011;7702;51.046;5.184;2024-03-23T14:30:05;3.57;;;1.90;;
15202;SDS011;7702;51.046;5.184;2024-03-23T14:32:31;4.43;;;1.20;;
15202;SDS011;7702;51.046;5.184;2024-03-23T14:35:01;1.30;;;0.70;;
15202;SDS011;7702;51.046;5.184;2024-03-23T14:37:26;2.33;;;0.70;;
15202;SDS011;7702;51.046;5.184;2024-03-23T14:39:54;2.20;;;0.67;;
15202;SDS011;7702;51.046;5.184;2024-03-23T14:42:21;3.17;;;0.60;;
15202;SDS011;7702;51.046;5.184;2024-03-23T14:44:47;1.33;;;0.70;;
15202;SDS011;7702;51.046;5.184;2024-03-23T14:47:13;1.97;;;0.70;;
15202;SDS011;7702;51.046;5.184;2024-03-23T14:49:38;1.73;;;1.10;;
15202;SDS011;7702;51.046;5.184;2024-03-23T14:52:04;2.57;;;1.37;;
15202;SDS011;7702;51.046;5.184;2024-03-23T14:54:30;3.70;;;1.27;;
15202;SDS011;7702;51.046;5.184;2024-03-23T14:56:55;3.53;;;1.20;;
15202;SDS011;7702;51.046;5.184;2024-03-23T14:59:23;1.80;;;1.20;;
15202;SDS011;7702;51.046;5.184;2024-03-23T15:01:49;3.13;;;1.30;;
15202;SDS011;7702;51.046;5.184;2024-03-23T15:04:16;2.10;;;1.10;;
15202;SDS011;7702;51.046;5.184;2024-03-23T15:06:42;2.53;;;1.20;;
15202;SDS011;7702;51.046;5.184;2024-03-23T15:09:07;2.20;;;1.20;;
15202;SDS011;7702;51.046;5.184;2024-03-23T15:11:36;4.10;;;1.40;;
15202;SDS011;7702;51.046;5.184;2024-03-23T15:14:02;2.97;;;1.30;;
15202;SDS011;7702;51.046;5.184;2024-03-23T15:16:27;1.87;;;1.03;;
15202;SDS011;7702;51.046;5.184;2024-03-23T15:18:53;2.03;;;1.10;;
15202;SDS011;7702;51.046;5.184;2024-03-23T15:21:19;2.67;;;1.40;;
15202;SDS011;7702;51.046;5.184;2024-03-23T15:23:46;2.73;;;1.43;;
15202;SDS011;7702;51.046;5.184;2024-03-23T15:26:12;2.97;;;1.40;;
15202;SDS011;7702;51.046;5.184;2024-03-23T15:28:38;2.27;;;1.10;;
15202;SDS011;7702;51.046;5.184;2024-03-23T15:31:22;1.83;;;1.30;;
15202;SDS011;7702;51.046;5.184;2024-03-23T15:33:48;3.40;;;1.33;;
15202;SDS011;7702;51.046;5.184;2024-03-23T15:36:14;4.33;;;1.60;;
15202;SDS011;7702;51.046;5.184;2024-03-23T15:38:40;4.03;;;1.77;;
15202;SDS011;7702;51.046;5.184;2024-03-23T15:41:06;2.63;;;1.13;;
15202;SDS011;7702;51.046;5.184;2024-03-23T15:43:32;3.40;;;1.20;;
15202;SDS011;7702;51.046;5.184;2024-03-23T15:45:58;3.13;;;1.20;;
15202;SDS011;7702;51.046;5.184;2024-03-23T15:48:25;2.40;;;1.30;;
15202;SDS011;7702;51.046;5.184;2024-03-23T15:50:58;2.93;;;1.70;;